createdAt,value
2023-01-31T00:01:38.636Z,7.13
2023-01-31T00:04:09.106Z,7.13
2023-01-31T00:06:44.969Z,6.55
2023-01-31T00:09:13.130Z,6.97
2023-01-31T00:11:40.238Z,6.82
2023-01-31T00:14:08.251Z,6.20
2023-01-31T00:16:35.334Z,6.20
2023-01-31T00:19:02.859Z,6.82
2023-01-31T00:21:31.251Z,5.55
2023-01-31T00:23:58.754Z,6.20
2023-01-31T00:26:27.600Z,5.75
2023-01-31T00:28:56.615Z,5.95
2023-01-31T00:31:25.675Z,6.70
2023-01-31T00:33:54.404Z,6.38
2023-01-31T00:36:25.233Z,6.03
2023-01-31T00:38:54.231Z,7.03
2023-01-31T00:41:23.285Z,6.50
2023-01-31T00:43:50.785Z,5.90
2023-01-31T00:46:18.349Z,6.38
2023-01-31T00:48:45.195Z,5.82
2023-01-31T00:51:12.451Z,5.82
2023-01-31T00:53:39.407Z,5.55
2023-01-31T00:56:14.936Z,5.63
2023-01-31T00:58:42.743Z,5.47
2023-01-31T01:01:14.134Z,6.25
2023-01-31T01:03:42.633Z,5.45
2023-01-31T01:06:11.163Z,6.90
2023-01-31T01:08:40.601Z,6.53
2023-01-31T01:11:12.012Z,7.13
2023-01-31T01:13:39.587Z,6.55
2023-01-31T01:16:12.414Z,6.07
2023-01-31T01:18:39.537Z,5.93
2023-01-31T01:21:15.088Z,5.80
2023-01-31T01:23:42.832Z,5.88
2023-01-31T01:26:20.825Z,5.55
2023-01-31T01:28:50.018Z,6.05
2023-01-31T01:31:19.336Z,5.78
2023-01-31T01:33:47.668Z,6.88
2023-01-31T01:36:17.418Z,6.38
2023-01-31T01:38:45.794Z,6.30
2023-01-31T01:41:14.077Z,6.28
2023-01-31T01:43:41.030Z,6.90
2023-01-31T01:46:10.366Z,6.05
2023-01-31T01:48:37.755Z,5.75
2023-01-31T01:51:06.843Z,6.13
2023-01-31T01:53:36.873Z,5.57
2023-01-31T01:56:09.946Z,6.03
2023-01-31T01:58:46.932Z,6.28
2023-01-31T02:01:16.834Z,6.28
2023-01-31T02:03:49.324Z,6.45
2023-01-31T02:06:16.512Z,6.30
2023-01-31T02:08:44.011Z,6.88
2023-01-31T02:11:24.255Z,7.32
2023-01-31T02:14:00.718Z,6.05
2023-01-31T02:16:28.095Z,6.45
2023-01-31T02:18:56.403Z,6.60
2023-01-31T02:21:42.290Z,7.03
2023-01-31T02:24:23.639Z,6.63
2023-01-31T02:26:56.509Z,7.13
2023-01-31T02:29:37.758Z,7.75
2023-01-31T02:32:50.006Z,7.95
2023-01-31T02:35:47.060Z,7.78
2023-01-31T02:38:34.334Z,8.32
2023-01-31T02:41:14.356Z,8.10
2023-01-31T02:44:12.777Z,8.27
2023-01-31T02:46:48.161Z,8.43
2023-01-31T02:49:36.891Z,8.45
2023-01-31T02:52:40.266Z,8.38
2023-01-31T02:55:44.778Z,8.43
2023-01-31T02:58:16.134Z,7.30
2023-01-31T03:00:46.036Z,8.00
2023-01-31T03:03:35.240Z,7.63
2023-01-31T03:06:11.992Z,7.90
2023-01-31T03:08:43.694Z,7.13
2023-01-31T03:11:11.669Z,6.95
2023-01-31T03:14:10.522Z,6.22
2023-01-31T03:17:08.189Z,7.25
2023-01-31T03:20:00.426Z,7.90
2023-01-31T03:22:41.137Z,7.03
2023-01-31T03:25:10.634Z,7.05
2023-01-31T03:27:40.359Z,7.13
2023-01-31T03:30:15.388Z,6.38
2023-01-31T03:32:50.699Z,6.20
2023-01-31T03:35:24.021Z,6.78
2023-01-31T03:37:58.669Z,5.70
2023-01-31T03:40:39.004Z,5.80
2023-01-31T03:43:31.848Z,6.30
2023-01-31T03:46:06.463Z,6.30
2023-01-31T03:48:37.842Z,6.30
2023-01-31T03:51:09.405Z,5.97
2023-01-31T03:53:43.750Z,5.32
2023-01-31T03:56:34.488Z,5.53
2023-01-31T03:59:11.126Z,7.10
2023-01-31T04:01:43.057Z,7.47
2023-01-31T04:04:14.973Z,7.07
2023-01-31T04:06:42.876Z,5.97
2023-01-31T04:09:10.351Z,5.70
2023-01-31T04:11:41.876Z,7.38
2023-01-31T04:14:10.261Z,6.93
2023-01-31T04:16:37.111Z,6.75
2023-01-31T04:19:04.026Z,6.03
2023-01-31T04:21:30.808Z,6.45
2023-01-31T04:23:57.665Z,6.28
2023-01-31T04:26:24.741Z,6.40
2023-01-31T04:28:52.178Z,6.32
2023-01-31T04:31:19.095Z,6.25
2023-01-31T04:33:46.018Z,7.22
2023-01-31T04:36:13.129Z,6.80
2023-01-31T04:38:39.950Z,7.20
2023-01-31T04:41:06.767Z,6.63
2023-01-31T04:43:33.733Z,5.90
2023-01-31T04:46:00.775Z,5.82
2023-01-31T04:48:29.080Z,6.22
2023-01-31T04:50:56.801Z,6.35
2023-01-31T04:53:23.928Z,6.68
2023-01-31T04:55:54.247Z,5.55
2023-01-31T04:58:21.447Z,5.65
2023-01-31T05:00:48.391Z,5.70
2023-01-31T05:03:15.323Z,4.72
2023-01-31T05:05:42.226Z,4.90
2023-01-31T05:08:09.091Z,4.85
2023-01-31T05:10:36.461Z,5.85
2023-01-31T05:13:03.475Z,5.10
2023-01-31T05:15:30.472Z,4.50
2023-01-31T05:18:03.213Z,5.15
2023-01-31T05:20:32.629Z,5.63
2023-01-31T05:22:59.959Z,5.43
2023-01-31T05:25:27.125Z,6.10
2023-01-31T05:27:54.192Z,5.68
2023-01-31T05:30:24.154Z,5.93
2023-01-31T05:32:51.442Z,5.68
2023-01-31T05:35:18.946Z,5.38
2023-01-31T05:37:46.363Z,6.38
2023-01-31T05:40:15.673Z,5.45
2023-01-31T05:42:42.643Z,4.75
2023-01-31T05:45:12.921Z,5.43
2023-01-31T05:47:40.013Z,6.22
2023-01-31T05:50:07.277Z,6.07
2023-01-31T05:52:34.175Z,5.85
2023-01-31T05:55:01.718Z,5.60
2023-01-31T05:57:28.610Z,5.95
2023-01-31T05:59:55.716Z,5.05
2023-01-31T06:02:22.800Z,5.97
2023-01-31T06:04:50.115Z,5.63
2023-01-31T06:07:16.988Z,6.32
2023-01-31T06:09:44.115Z,6.05
2023-01-31T06:12:14.697Z,5.80
2023-01-31T06:14:41.839Z,5.20
2023-01-31T06:17:08.799Z,6.18
2023-01-31T06:19:35.631Z,5.50
2023-01-31T06:22:02.490Z,6.18
2023-01-31T06:24:29.502Z,6.00
2023-01-31T06:26:56.840Z,5.10
2023-01-31T06:29:23.996Z,6.03
2023-01-31T06:31:50.864Z,7.05
2023-01-31T06:34:17.808Z,6.30
2023-01-31T06:36:44.847Z,6.65
2023-01-31T06:39:13.916Z,6.15
2023-01-31T06:41:41.070Z,6.90
2023-01-31T06:44:07.953Z,6.70
2023-01-31T06:46:35.424Z,5.88
2023-01-31T06:49:02.377Z,5.88
2023-01-31T06:51:29.242Z,5.88
2023-01-31T06:53:57.001Z,6.10
2023-01-31T06:56:24.031Z,7.28
2023-01-31T06:58:51.155Z,5.95
2023-01-31T07:01:18.162Z,5.50
2023-01-31T07:03:45.476Z,5.55
2023-01-31T07:06:13.763Z,5.70
2023-01-31T07:08:40.835Z,6.38
2023-01-31T07:11:07.849Z,6.25
2023-01-31T07:13:34.843Z,6.10
2023-01-31T07:16:01.771Z,6.25
2023-01-31T07:18:29.167Z,5.82
2023-01-31T07:20:56.290Z,5.53
2023-01-31T07:23:23.185Z,5.93
2023-01-31T07:25:50.054Z,5.82
2023-01-31T07:28:17.086Z,5.90
2023-01-31T07:30:44.100Z,6.00
2023-01-31T07:33:11.729Z,5.50
2023-01-31T07:35:38.640Z,6.03
2023-01-31T07:38:06.010Z,5.97
2023-01-31T07:40:34.780Z,6.70
2023-01-31T07:43:02.384Z,7.20
2023-01-31T07:45:29.820Z,6.53
2023-01-31T07:48:00.901Z,6.90
2023-01-31T07:50:27.982Z,5.53
2023-01-31T07:52:56.984Z,4.97
2023-01-31T07:55:23.991Z,4.55
2023-01-31T07:57:51.110Z,5.15
2023-01-31T08:00:37.509Z,5.78
2023-01-31T08:03:23.897Z,4.65
2023-01-31T08:05:50.923Z,4.43
2023-01-31T08:08:17.787Z,4.35
2023-01-31T08:10:47.367Z,4.30
2023-01-31T08:13:14.361Z,4.25
2023-01-31T08:15:41.313Z,4.80
2023-01-31T08:18:08.274Z,3.92
2023-01-31T08:20:37.711Z,4.20
2023-01-31T08:23:04.681Z,4.20
2023-01-31T08:25:32.178Z,4.05
2023-01-31T08:27:59.892Z,3.95
2023-01-31T08:30:27.972Z,4.05
2023-01-31T08:32:55.708Z,4.30
2023-01-31T08:35:23.142Z,4.28
2023-01-31T08:37:50.041Z,4.60
2023-01-31T08:40:17.567Z,3.85
2023-01-31T08:42:44.546Z,3.92
2023-01-31T08:45:11.483Z,4.65
2023-01-31T08:47:38.957Z,4.18
2023-01-31T08:50:15.827Z,4.15
2023-01-31T08:53:00.373Z,4.40
2023-01-31T08:55:29.252Z,4.90
2023-01-31T08:58:00.045Z,4.03
2023-01-31T09:00:27.463Z,4.55
2023-01-31T09:02:56.140Z,4.55
2023-01-31T09:05:25.264Z,5.18
2023-01-31T09:07:52.503Z,4.95
2023-01-31T09:10:20.397Z,4.78
2023-01-31T09:12:47.883Z,4.32
2023-01-31T09:15:15.142Z,4.15
2023-01-31T09:17:43.586Z,4.07
2023-01-31T09:23:31.846Z,4.47
2023-01-31T09:25:59.136Z,4.85
2023-01-31T09:28:26.543Z,4.93
2023-01-31T09:30:53.742Z,4.57
2023-01-31T09:33:21.872Z,4.80
2023-01-31T09:35:59.995Z,3.63
2023-01-31T09:38:27.168Z,3.78
2023-01-31T09:40:55.903Z,4.25
2023-01-31T09:43:28.607Z,3.90
2023-01-31T09:46:00.215Z,3.42
2023-01-31T09:48:31.977Z,3.72
2023-01-31T09:50:59.934Z,4.80
2023-01-31T09:53:32.850Z,4.10
2023-01-31T09:56:08.804Z,3.60
2023-01-31T09:59:04.818Z,3.20
2023-01-31T10:01:39.126Z,3.80
2023-01-31T10:04:28.183Z,3.30
2023-01-31T10:07:00.194Z,2.97
2023-01-31T10:09:54.941Z,2.80
2023-01-31T10:12:40.395Z,2.30
2023-01-31T10:15:15.723Z,2.95
2023-01-31T10:17:58.275Z,2.58
2023-01-31T10:20:47.936Z,2.80
2023-01-31T10:23:18.350Z,3.03
2023-01-31T10:25:51.361Z,3.25
2023-01-31T10:28:24.243Z,3.33
2023-01-31T10:30:51.255Z,2.92
2023-01-31T10:33:30.380Z,2.75
2023-01-31T10:36:02.201Z,3.08
2023-01-31T10:38:45.268Z,3.80
2023-01-31T10:41:21.827Z,3.03
2023-01-31T10:44:01.948Z,3.33
2023-01-31T10:46:28.948Z,3.70
2023-01-31T10:48:56.024Z,5.88
2023-01-31T10:51:53.452Z,4.05
2023-01-31T10:54:25.983Z,4.50
2023-01-31T10:56:53.447Z,3.80
2023-01-31T10:59:33.788Z,3.58
2023-01-31T11:02:03.017Z,4.20
2023-01-31T11:04:32.612Z,3.13
2023-01-31T11:07:01.621Z,2.72
2023-01-31T11:09:33.156Z,3.70
2023-01-31T11:12:02.596Z,2.85
2023-01-31T11:14:32.875Z,2.67
2023-01-31T11:17:05.402Z,3.00
2023-01-31T11:19:44.459Z,3.35
2023-01-31T11:22:31.715Z,2.80
2023-01-31T11:25:01.782Z,3.10
2023-01-31T11:27:43.169Z,3.33
2023-01-31T11:30:22.280Z,3.90
2023-01-31T11:32:49.888Z,3.00
2023-01-31T11:35:19.486Z,3.40
2023-01-31T11:38:00.884Z,3.40
2023-01-31T11:40:39.179Z,2.75
2023-01-31T11:43:16.635Z,2.10
2023-01-31T11:45:46.148Z,1.88
2023-01-31T11:48:13.302Z,2.25
2023-01-31T11:50:52.376Z,2.05
2023-01-31T11:53:26.868Z,1.67
2023-01-31T11:55:57.481Z,2.08
2023-01-31T11:58:34.575Z,2.03
2023-01-31T12:01:23.211Z,1.63
2023-01-31T12:04:04.631Z,1.80
2023-01-31T12:06:37.669Z,1.65
2023-01-31T12:09:18.683Z,2.08
2023-01-31T12:11:59.899Z,1.88
2023-01-31T12:14:39.797Z,1.98
2023-01-31T12:17:12.506Z,1.95
2023-01-31T12:19:46.008Z,2.30
2023-01-31T12:22:23.669Z,1.60
2023-01-31T12:24:59.203Z,2.25
2023-01-31T12:27:34.949Z,1.90
2023-01-31T12:30:19.768Z,2.35
2023-01-31T12:33:05.096Z,1.70
2023-01-31T12:36:10.488Z,1.80
2023-01-31T12:39:08.622Z,1.92
2023-01-31T12:42:32.595Z,2.33
2023-01-31T12:45:21.422Z,2.20
2023-01-31T12:47:59.389Z,2.20
2023-01-31T12:51:04.323Z,2.13
2023-01-31T12:53:50.103Z,2.67
2023-01-31T12:56:31.298Z,2.83
2023-01-31T12:59:18.360Z,2.58
2023-01-31T13:02:08.914Z,2.80
2023-01-31T13:05:02.109Z,2.75
2023-01-31T13:07:40.290Z,3.20
2023-01-31T13:10:23.852Z,4.20
2023-01-31T13:12:51.533Z,2.88
2023-01-31T13:15:43.123Z,3.40
2023-01-31T13:18:12.611Z,3.30
2023-01-31T13:20:42.257Z,3.33
2023-01-31T13:23:17.246Z,3.92
2023-01-31T13:25:49.137Z,3.58
2023-01-31T13:28:21.783Z,3.65
2023-01-31T13:31:00.498Z,3.45
2023-01-31T13:33:47.552Z,3.40
2023-01-31T13:36:35.475Z,4.47
2023-01-31T13:39:08.792Z,6.35
2023-01-31T13:41:37.148Z,6.07
2023-01-31T13:44:04.101Z,5.05
2023-01-31T13:46:42.754Z,11.13
2023-01-31T13:49:25.383Z,6.10
2023-01-31T13:51:59.674Z,5.30
2023-01-31T13:54:37.440Z,5.93
2023-01-31T13:57:06.079Z,5.57
2023-01-31T13:59:35.977Z,5.85
2023-01-31T14:02:07.706Z,11.15
2023-01-31T14:04:40.367Z,8.07
2023-01-31T14:07:10.298Z,7.35
2023-01-31T14:09:42.770Z,6.75
2023-01-31T14:12:15.717Z,7.55
2023-01-31T14:14:51.469Z,29.48
2023-01-31T14:17:21.401Z,20.13
2023-01-31T14:19:49.311Z,8.13
2023-01-31T14:22:17.753Z,10.70
2023-01-31T14:24:50.753Z,8.40
2023-01-31T14:27:26.732Z,14.07
2023-01-31T14:29:57.782Z,42.85
2023-01-31T14:32:47.018Z,29.38
2023-01-31T14:35:14.262Z,25.30
2023-01-31T14:37:56.427Z,26.85
2023-01-31T14:40:34.205Z,41.83
2023-01-31T14:43:15.918Z,42.00
2023-01-31T14:45:57.764Z,28.83
2023-01-31T14:48:46.218Z,9.45
2023-01-31T14:51:38.664Z,15.23
2023-01-31T14:54:21.042Z,9.27
2023-01-31T14:56:57.219Z,9.75
2023-01-31T14:59:35.793Z,4.85
2023-01-31T15:02:32.133Z,3.70
2023-01-31T15:05:09.062Z,3.90
2023-01-31T15:07:36.099Z,3.88
2023-01-31T15:10:04.841Z,3.00
2023-01-31T15:12:55.181Z,6.47
2023-01-31T15:15:33.255Z,7.00
2023-01-31T15:18:04.148Z,5.35
2023-01-31T15:20:43.365Z,4.45
2023-01-31T15:23:21.654Z,5.10
2023-01-31T15:25:49.997Z,4.97
2023-01-31T15:28:30.180Z,3.67
2023-01-31T15:31:01.165Z,3.58
2023-01-31T15:33:43.551Z,3.85
2023-01-31T15:36:21.188Z,3.85
2023-01-31T15:39:03.478Z,3.95
2023-01-31T15:41:44.637Z,3.78
2023-01-31T15:44:21.536Z,3.70
2023-01-31T15:46:50.645Z,4.05
2023-01-31T15:49:40.504Z,3.33
2023-01-31T15:52:22.879Z,3.53
2023-01-31T15:54:56.398Z,3.80
2023-01-31T15:57:32.866Z,3.30
2023-01-31T15:59:59.845Z,3.53
2023-01-31T16:02:30.258Z,3.42
2023-01-31T16:04:57.756Z,4.32
2023-01-31T16:07:31.400Z,4.35
2023-01-31T16:10:01.986Z,3.03
2023-01-31T16:12:32.500Z,3.70
2023-01-31T16:15:05.014Z,4.25
2023-01-31T16:17:32.431Z,4.13
2023-01-31T16:19:59.358Z,4.82
2023-01-31T16:22:29.728Z,9.98
2023-01-31T16:24:59.174Z,3.90
2023-01-31T16:27:29.965Z,4.50
2023-01-31T16:29:59.435Z,3.85
2023-01-31T16:32:29.947Z,3.00
2023-01-31T16:35:02.394Z,3.30
2023-01-31T16:37:37.382Z,3.63
2023-01-31T16:40:45.150Z,3.97
2023-01-31T16:43:33.024Z,3.95
2023-01-31T16:46:03.197Z,3.80
2023-01-31T16:48:36.462Z,3.75
2023-01-31T16:51:25.733Z,3.28
2023-01-31T16:54:19.114Z,3.10
2023-01-31T16:57:01.977Z,4.45
2023-01-31T16:59:35.025Z,4.32
2023-01-31T17:02:09.125Z,4.82
2023-01-31T17:04:42.372Z,4.38
2023-01-31T17:07:14.848Z,5.88
2023-01-31T17:09:41.795Z,15.13
2023-01-31T17:12:19.609Z,17.88
2023-01-31T17:14:46.810Z,17.50
2023-01-31T17:17:20.540Z,13.07
2023-01-31T17:19:49.136Z,15.93
2023-01-31T17:22:16.276Z,17.95
2023-01-31T17:24:43.401Z,16.38
2023-01-31T17:27:15.201Z,12.77
2023-01-31T17:29:47.409Z,12.07
2023-01-31T17:32:16.345Z,20.08
2023-01-31T17:34:45.863Z,9.48
2023-01-31T17:37:16.062Z,7.85
2023-01-31T17:39:43.641Z,5.68
2023-01-31T17:42:18.079Z,6.60
2023-01-31T17:44:45.277Z,8.88
2023-01-31T17:47:12.636Z,19.25
2023-01-31T17:49:39.451Z,11.40
2023-01-31T17:52:06.308Z,13.20
2023-01-31T17:54:33.510Z,5.72
2023-01-31T17:57:00.334Z,5.50
2023-01-31T17:59:27.709Z,7.13
2023-01-31T18:01:55.355Z,6.25
2023-01-31T18:04:22.233Z,5.47
2023-01-31T18:06:49.084Z,4.78
2023-01-31T18:09:17.044Z,6.15
2023-01-31T18:11:44.554Z,5.05
2023-01-31T18:14:12.470Z,4.70
2023-01-31T18:16:39.412Z,5.35
2023-01-31T18:19:06.339Z,4.07
2023-01-31T18:21:34.295Z,5.30
2023-01-31T18:24:01.739Z,5.00
2023-01-31T18:26:29.160Z,4.38
2023-01-31T18:28:57.627Z,4.47
2023-01-31T18:31:24.749Z,5.43
2023-01-31T18:33:51.893Z,5.63
2023-01-31T18:36:20.820Z,3.63
2023-01-31T18:38:48.823Z,4.20
2023-01-31T18:41:19.648Z,3.45
2023-01-31T18:43:48.260Z,3.75
2023-01-31T18:46:17.286Z,4.10
2023-01-31T18:48:44.347Z,4.13
2023-01-31T18:51:12.817Z,3.80
2023-01-31T18:53:41.979Z,3.30
2023-01-31T18:56:13.120Z,3.88
2023-01-31T18:58:41.576Z,3.67
2023-01-31T19:01:16.688Z,3.88
2023-01-31T19:03:46.552Z,4.32
2023-01-31T19:06:18.575Z,3.88
2023-01-31T19:08:52.296Z,4.25
2023-01-31T19:11:20.938Z,4.88
2023-01-31T19:13:47.868Z,4.68
2023-01-31T19:16:20.686Z,4.60
2023-01-31T19:18:49.251Z,5.57
2023-01-31T19:21:22.127Z,4.93
2023-01-31T19:23:50.634Z,4.80
2023-01-31T19:26:18.297Z,5.55
2023-01-31T19:28:46.392Z,4.85
2023-01-31T19:31:19.401Z,4.32
2023-01-31T19:33:51.598Z,4.65
2023-01-31T19:36:29.386Z,4.72
2023-01-31T19:39:00.723Z,5.25
2023-01-31T19:41:29.056Z,4.50
2023-01-31T19:43:57.732Z,4.93
2023-01-31T19:46:27.879Z,4.90
2023-01-31T19:48:58.754Z,5.20
2023-01-31T19:51:26.813Z,4.90
2023-01-31T19:54:04.294Z,5.70
2023-01-31T19:56:31.942Z,6.03
2023-01-31T19:59:00.083Z,5.45
2023-01-31T20:01:27.200Z,5.60
2023-01-31T20:03:55.048Z,5.60
2023-01-31T20:06:25.716Z,6.00
2023-01-31T20:08:54.722Z,5.50
2023-01-31T20:11:21.984Z,5.85
2023-01-31T20:13:51.114Z,6.13
2023-01-31T20:16:18.941Z,5.90
2023-01-31T20:18:46.052Z,5.85
2023-01-31T20:21:18.406Z,5.25
2023-01-31T20:23:45.322Z,6.57
2023-01-31T20:26:13.470Z,5.55
2023-01-31T20:28:40.934Z,4.85
2023-01-31T20:31:10.219Z,4.63
2023-01-31T20:33:37.249Z,5.30
2023-01-31T20:36:05.078Z,5.32
2023-01-31T20:38:32.269Z,5.05
2023-01-31T20:40:59.115Z,4.63
2023-01-31T20:43:26.918Z,4.55
2023-01-31T20:46:01.027Z,4.78
2023-01-31T20:48:27.934Z,4.60
2023-01-31T20:50:56.604Z,5.22
2023-01-31T20:53:24.516Z,5.40
2023-01-31T20:55:56.855Z,5.28
2023-01-31T20:58:25.044Z,4.88
2023-01-31T21:00:53.584Z,4.57
2023-01-31T21:03:20.920Z,4.78
2023-01-31T21:05:47.996Z,5.35
2023-01-31T21:08:14.827Z,4.95
2023-01-31T21:10:41.726Z,5.13
2023-01-31T21:13:09.185Z,5.07
2023-01-31T21:15:36.208Z,5.18
2023-01-31T21:18:03.164Z,4.90
2023-01-31T21:20:30.058Z,5.30
2023-01-31T21:22:56.967Z,5.15
2023-01-31T21:25:24.028Z,5.38
2023-01-31T21:27:50.889Z,5.50
2023-01-31T21:30:18.181Z,4.68
2023-01-31T21:32:45.162Z,4.80
2023-01-31T21:35:12.262Z,4.68
2023-01-31T21:37:39.147Z,5.82
2023-01-31T21:40:07.285Z,5.40
2023-01-31T21:42:34.160Z,5.50
2023-01-31T21:45:00.987Z,5.15
2023-01-31T21:47:29.141Z,4.88
2023-01-31T21:49:55.927Z,5.30
2023-01-31T21:52:22.743Z,5.28
2023-01-31T21:54:49.577Z,5.55
2023-01-31T21:57:16.424Z,5.97
2023-01-31T21:59:45.515Z,5.70
2023-01-31T22:02:12.428Z,5.15
2023-01-31T22:04:39.337Z,5.00
2023-01-31T22:07:06.335Z,5.82
2023-01-31T22:09:33.613Z,5.22
2023-01-31T22:12:00.449Z,4.88
2023-01-31T22:14:27.316Z,5.18
2023-01-31T22:16:55.147Z,5.30
2023-01-31T22:19:22.039Z,6.00
2023-01-31T22:21:48.900Z,5.10
2023-01-31T22:24:17.119Z,6.40
2023-01-31T22:26:44.675Z,5.38
2023-01-31T22:29:15.779Z,5.50
2023-01-31T22:31:44.244Z,5.25
2023-01-31T22:34:15.634Z,4.72
2023-01-31T22:36:42.609Z,4.03
2023-01-31T22:39:13.132Z,4.80
2023-01-31T22:41:40.108Z,4.10
2023-01-31T22:44:07.065Z,4.85
2023-01-31T22:46:34.027Z,3.97
2023-01-31T22:49:01.002Z,3.85
2023-01-31T22:51:29.008Z,3.55
2023-01-31T22:53:57.945Z,3.65
2023-01-31T22:56:30.202Z,3.15
2023-01-31T22:58:58.700Z,2.88
2023-01-31T23:01:31.580Z,2.67
2023-01-31T23:04:00.977Z,2.40
2023-01-31T23:06:28.667Z,2.22
2023-01-31T23:08:56.732Z,2.20
2023-01-31T23:11:24.440Z,2.38
2023-01-31T23:13:51.602Z,2.33
2023-01-31T23:16:21.579Z,1.90
2023-01-31T23:18:48.396Z,1.92
2023-01-31T23:21:17.694Z,1.83
2023-01-31T23:23:45.564Z,1.85
2023-01-31T23:26:13.443Z,2.10
2023-01-31T23:28:40.744Z,2.40
2023-01-31T23:31:08.279Z,2.22
2023-01-31T23:33:35.195Z,2.20
2023-01-31T23:36:02.670Z,2.50
2023-01-31T23:38:29.539Z,2.15
2023-01-31T23:40:56.375Z,2.10
2023-01-31T23:43:23.413Z,2.60
2023-01-31T23:45:50.626Z,2.38
2023-01-31T23:48:17.852Z,2.28
2023-01-31T23:50:44.684Z,1.92
2023-01-31T23:53:11.500Z,2.20
2023-01-31T23:55:38.378Z,2.25
2023-01-31T23:58:05.726Z,2.55
